sensor_id;sensor_type;location;lat;lon;timestamp;P1;durP1;ratioP1;P2;durP2;ratioP2
48006;SDS011;33771;48.180;11.400;2023-07-02T00:01:08;3.47;;;2.65;;
48006;SDS011;33771;48.180;11.400;2023-07-02T00:03:33;3.60;;;2.42;;
48006;SDS011;33771;48.180;11.400;2023-07-02T00:05:59;4.45;;;2.60;;
48006;SDS011;33771;48.180;11.400;2023-07-02T00:08:24;4.20;;;2.95;;
48006;SDS011;33771;48.180;11.400;2023-07-02T00:10:50;5.18;;;2.63;;
48006;SDS011;33771;48.180;11.400;2023-07-02T00:13:15;4.13;;;2.60;;
48006;SDS011;33771;48.180;11.400;2023-07-02T00:15:48;4.75;;;2.75;;
48006;SDS011;33771;48.180;11.400;2023-07-02T00:18:14;5.53;;;2.58;;
48006;SDS011;33771;48.180;11.400;2023-07-02T00:20:43;3.97;;;2.47;;
48006;SDS011;33771;48.180;11.400;2023-07-02T00:23:09;5.07;;;2.38;;
48006;SDS011;33771;48.180;11.400;2023-07-02T00:25:35;4.60;;;3.00;;
48006;SDS011;33771;48.180;11.400;2023-07-02T00:28:01;4.30;;;2.60;;
48006;SDS011;33771;48.180;11.400;2023-07-02T00:30:27;2.88;;;2.58;;
48006;SDS011;33771;48.180;11.400;2023-07-02T00:32:52;5.25;;;2.90;;
48006;SDS011;33771;48.180;11.400;2023-07-02T00:35:18;4.85;;;2.80;;
48006;SDS011;33771;48.180;11.400;2023-07-02T00:37:44;4.88;;;2.60;;
48006;SDS011;33771;48.180;11.400;2023-07-02T00:40:09;5.57;;;2.63;;
48006;SDS011;33771;48.180;11.400;2023-07-02T00:42:35;3.70;;;2.50;;
48006;SDS011;33771;48.180;11.400;2023-07-02T00:45:01;3.55;;;2.13;;
48006;SDS011;33771;48.180;11.400;2023-07-02T00:47:30;4.18;;;2.55;;
48006;SDS011;33771;48.180;11.400;2023-07-02T00:50:00;3.35;;;2.30;;
48006;SDS011;33771;48.180;11.400;2023-07-02T00:52:26;4.20;;;2.35;;
48006;SDS011;33771;48.180;11.400;2023-07-02T00:54:52;4.05;;;2.20;;
48006;SDS011;33771;48.180;11.400;2023-07-02T00:57:18;4.45;;;2.28;;
48006;SDS011;33771;48.180;11.400;2023-07-02T00:59:44;2.63;;;2.00;;
48006;SDS011;33771;48.180;11.400;2023-07-02T01:02:09;2.42;;;1.92;;
48006;SDS011;33771;48.180;11.400;2023-07-02T01:04:35;3.20;;;2.30;;
48006;SDS011;33771;48.180;11.400;2023-07-02T01:07:02;5.03;;;2.40;;
48006;SDS011;33771;48.180;11.400;2023-07-02T01:09:33;3.17;;;2.08;;
48006;SDS011;33771;48.180;11.400;2023-07-02T01:12:00;3.45;;;2.00;;
48006;SDS011;33771;48.180;11.400;2023-07-02T01:16:59;2.97;;;1.83;;
48006;SDS011;33771;48.180;11.400;2023-07-02T01:22:09;2.47;;;2.00;;
48006;SDS011;33771;48.180;11.400;2023-07-02T01:24:36;3.95;;;2.10;;
48006;SDS011;33771;48.180;11.400;2023-07-02T01:27:03;2.97;;;2.10;;
48006;SDS011;33771;48.180;11.400;2023-07-02T01:29:29;3.08;;;1.80;;
48006;SDS011;33771;48.180;11.400;2023-07-02T01:31:55;2.03;;;1.58;;
48006;SDS011;33771;48.180;11.400;2023-07-02T01:34:21;3.72;;;2.05;;
48006;SDS011;33771;48.180;11.400;2023-07-02T01:36:47;2.25;;;1.70;;
48006;SDS011;33771;48.180;11.400;2023-07-02T01:39:13;2.47;;;1.75;;
48006;SDS011;33771;48.180;11.400;2023-07-02T01:41:44;3.13;;;1.73;;
48006;SDS011;33771;48.180;11.400;2023-07-02T01:44:10;2.25;;;1.70;;
48006;SDS011;33771;48.180;11.400;2023-07-02T01:46:36;2.90;;;1.95;;
48006;SDS011;33771;48.180;11.400;2023-07-02T01:49:01;3.38;;;2.05;;
48006;SDS011;33771;48.180;11.400;2023-07-02T01:51:29;3.03;;;2.00;;
48006;SDS011;33771;48.180;11.400;2023-07-02T01:53:55;4.88;;;2.28;;
48006;SDS011;33771;48.180;11.400;2023-07-02T01:56:20;4.07;;;1.90;;
48006;SDS011;33771;48.180;11.400;2023-07-02T01:58:46;6.38;;;2.00;;
48006;SDS011;33771;48.180;11.400;2023-07-02T02:01:11;3.45;;;1.95;;
48006;SDS011;33771;48.180;11.400;2023-07-02T02:03:37;2.90;;;2.20;;
48006;SDS011;33771;48.180;11.400;2023-07-02T02:06:03;4.75;;;1.98;;
48006;SDS011;33771;48.180;11.400;2023-07-02T02:08:28;2.38;;;1.83;;
48006;SDS011;33771;48.180;11.400;2023-07-02T02:10:54;2.97;;;2.00;;
48006;SDS011;33771;48.180;11.400;2023-07-02T02:13:19;4.18;;;2.28;;
48006;SDS011;33771;48.180;11.400;2023-07-02T02:15:45;2.63;;;1.80;;
48006;SDS011;33771;48.180;11.400;2023-07-02T02:18:10;2.47;;;1.90;;
48006;SDS011;33771;48.180;11.400;2023-07-02T02:20:39;2.60;;;2.00;;
48006;SDS011;33771;48.180;11.400;2023-07-02T02:23:04;3.00;;;1.92;;
48006;SDS011;33771;48.180;11.400;2023-07-02T02:25:30;2.45;;;2.08;;
48006;SDS011;33771;48.180;11.400;2023-07-02T02:27:55;2.97;;;2.00;;
48006;SDS011;33771;48.180;11.400;2023-07-02T02:30:21;2.95;;;1.90;;
48006;SDS011;33771;48.180;11.400;2023-07-02T02:32:46;2.60;;;1.92;;
48006;SDS011;33771;48.180;11.400;2023-07-02T02:35:12;2.65;;;2.00;;
48006;SDS011;33771;48.180;11.400;2023-07-02T02:37:38;3.70;;;2.00;;
48006;SDS011;33771;48.180;11.400;2023-07-02T02:40:05;5.93;;;2.10;;
48006;SDS011;33771;48.180;11.400;2023-07-02T02:42:32;2.75;;;2.00;;
48006;SDS011;33771;48.180;11.400;2023-07-02T02:44:57;2.50;;;2.20;;
48006;SDS011;33771;48.180;11.400;2023-07-02T02:47:23;3.55;;;2.00;;
48006;SDS011;33771;48.180;11.400;2023-07-02T02:49:48;3.88;;;2.00;;
48006;SDS011;33771;48.180;11.400;2023-07-02T02:52:14;4.80;;;2.17;;
48006;SDS011;33771;48.180;11.400;2023-07-02T02:54:40;3.35;;;2.00;;
48006;SDS011;33771;48.180;11.400;2023-07-02T02:57:06;3.40;;;2.03;;
48006;SDS011;33771;48.180;11.400;2023-07-02T02:59:31;2.78;;;2.38;;
48006;SDS011;33771;48.180;11.400;2023-07-02T03:01:57;3.63;;;2.05;;
48006;SDS011;33771;48.180;11.400;2023-07-02T03:04:22;3.05;;;2.13;;
48006;SDS011;33771;48.180;11.400;2023-07-02T03:06:51;4.60;;;2.60;;
48006;SDS011;33771;48.180;11.400;2023-07-02T03:09:21;7.65;;;3.08;;
48006;SDS011;33771;48.180;11.400;2023-07-02T03:11:46;9.00;;;2.85;;
48006;SDS011;33771;48.180;11.400;2023-07-02T03:14:12;4.78;;;2.90;;
48006;SDS011;33771;48.180;11.400;2023-07-02T03:16:39;4.18;;;3.00;;
48006;SDS011;33771;48.180;11.400;2023-07-02T03:19:05;6.22;;;3.03;;
48006;SDS011;33771;48.180;11.400;2023-07-02T03:21:31;7.75;;;3.20;;
48006;SDS011;33771;48.180;11.400;2023-07-02T03:23:57;7.95;;;3.15;;
48006;SDS011;33771;48.180;11.400;2023-07-02T03:26:23;7.40;;;3.47;;
48006;SDS011;33771;48.180;11.400;2023-07-02T03:28:49;5.65;;;3.58;;
48006;SDS011;33771;48.180;11.400;2023-07-02T03:31:14;6.97;;;3.45;;
48006;SDS011;33771;48.180;11.400;2023-07-02T03:33:40;5.35;;;3.42;;
48006;SDS011;33771;48.180;11.400;2023-07-02T03:36:05;5.85;;;3.15;;
48006;SDS011;33771;48.180;11.400;2023-07-02T03:38:31;5.45;;;3.67;;
48006;SDS011;33771;48.180;11.400;2023-07-02T03:40:57;5.20;;;3.10;;
48006;SDS011;33771;48.180;11.400;2023-07-02T03:43:22;6.38;;;3.40;;
48006;SDS011;33771;48.180;11.400;2023-07-02T03:45:49;6.20;;;3.20;;
48006;SDS011;33771;48.180;11.400;2023-07-02T03:48:16;6.00;;;3.38;;
48006;SDS011;33771;48.180;11.400;2023-07-02T03:50:42;14.48;;;2.90;;
48006;SDS011;33771;48.180;11.400;2023-07-02T03:53:07;6.55;;;3.25;;
48006;SDS011;33771;48.180;11.400;2023-07-02T03:55:33;6.30;;;2.90;;
48006;SDS011;33771;48.180;11.400;2023-07-02T03:57:59;7.28;;;3.55;;
48006;SDS011;33771;48.180;11.400;2023-07-02T04:00:24;6.22;;;3.35;;
48006;SDS011;33771;48.180;11.400;2023-07-02T04:02:50;7.55;;;3.08;;
48006;SDS011;33771;48.180;11.400;2023-07-02T04:05:15;5.25;;;3.08;;
48006;SDS011;33771;48.180;11.400;2023-07-02T04:07:41;4.63;;;3.17;;
48006;SDS011;33771;48.180;11.400;2023-07-02T04:10:07;7.28;;;3.45;;
48006;SDS011;33771;48.180;11.400;2023-07-02T04:12:33;8.63;;;3.83;;
48006;SDS011;33771;48.180;11.400;2023-07-02T04:14:58;3.65;;;3.03;;
48006;SDS011;33771;48.180;11.400;2023-07-02T04:17:24;6.55;;;3.20;;
48006;SDS011;33771;48.180;11.400;2023-07-02T04:19:49;5.85;;;3.08;;
48006;SDS011;33771;48.180;11.400;2023-07-02T04:22:15;5.68;;;3.38;;
48006;SDS011;33771;48.180;11.400;2023-07-02T04:24:41;4.78;;;3.15;;
48006;SDS011;33771;48.180;11.400;2023-07-02T04:27:06;4.72;;;2.97;;
48006;SDS011;33771;48.180;11.400;2023-07-02T04:29:32;7.28;;;3.30;;
48006;SDS011;33771;48.180;11.400;2023-07-02T04:31:57;5.55;;;3.55;;
48006;SDS011;33771;48.180;11.400;2023-07-02T04:34:23;5.28;;;2.92;;
48006;SDS011;33771;48.180;11.400;2023-07-02T04:36:49;6.70;;;3.05;;
48006;SDS011;33771;48.180;11.400;2023-07-02T04:39:15;5.97;;;2.90;;
48006;SDS011;33771;48.180;11.400;2023-07-02T04:41:40;6.70;;;3.22;;
48006;SDS011;33771;48.180;11.400;2023-07-02T04:44:06;7.95;;;3.70;;
48006;SDS011;33771;48.180;11.400;2023-07-02T04:46:31;6.32;;;3.25;;
48006;SDS011;33771;48.180;11.400;2023-07-02T04:48:57;11.32;;;3.40;;
48006;SDS011;33771;48.180;11.400;2023-07-02T04:51:22;7.30;;;3.10;;
48006;SDS011;33771;48.180;11.400;2023-07-02T04:53:48;8.05;;;3.22;;
48006;SDS011;33771;48.180;11.400;2023-07-02T04:56:13;4.53;;;3.13;;
48006;SDS011;33771;48.180;11.400;2023-07-02T04:58:39;5.45;;;2.85;;
48006;SDS011;33771;48.180;11.400;2023-07-02T05:01:05;7.65;;;3.30;;
48006;SDS011;33771;48.180;11.400;2023-07-02T05:03:30;4.75;;;3.30;;
48006;SDS011;33771;48.180;11.400;2023-07-02T05:05:56;4.35;;;2.78;;
48006;SDS011;33771;48.180;11.400;2023-07-02T05:08:21;4.90;;;3.05;;
48006;SDS011;33771;48.180;11.400;2023-07-02T05:10:47;5.10;;;3.28;;
48006;SDS011;33771;48.180;11.400;2023-07-02T05:13:13;5.07;;;3.25;;
48006;SDS011;33771;48.180;11.400;2023-07-02T05:15:38;4.85;;;3.15;;
48006;SDS011;33771;48.180;11.400;2023-07-02T05:18:04;5.72;;;3.50;;
48006;SDS011;33771;48.180;11.400;2023-07-02T05:20:31;4.78;;;3.20;;
48006;SDS011;33771;48.180;11.400;2023-07-02T05:22:57;4.68;;;3.17;;
48006;SDS011;33771;48.180;11.400;2023-07-02T05:25:22;8.18;;;3.63;;
48006;SDS011;33771;48.180;11.400;2023-07-02T05:27:48;4.35;;;3.00;;
48006;SDS011;33771;48.180;11.400;2023-07-02T05:30:13;5.32;;;3.08;;
48006;SDS011;33771;48.180;11.400;2023-07-02T05:32:39;7.47;;;3.33;;
48006;SDS011;33771;48.180;11.400;2023-07-02T05:35:07;7.28;;;3.13;;
48006;SDS011;33771;48.180;11.400;2023-07-02T05:37:33;6.82;;;3.58;;
48006;SDS011;33771;48.180;11.400;2023-07-02T05:39:58;5.18;;;3.30;;
48006;SDS011;33771;48.180;11.400;2023-07-02T05:42:24;4.50;;;2.95;;
48006;SDS011;33771;48.180;11.400;2023-07-02T05:44:50;5.82;;;3.05;;
48006;SDS011;33771;48.180;11.400;2023-07-02T05:47:15;4.90;;;3.15;;
48006;SDS011;33771;48.180;11.400;2023-07-02T05:49:41;5.55;;;3.75;;
48006;SDS011;33771;48.180;11.400;2023-07-02T05:52:07;6.50;;;3.30;;
48006;SDS011;33771;48.180;11.400;2023-07-02T05:54:33;5.20;;;3.10;;
48006;SDS011;33771;48.180;11.400;2023-07-02T05:56:58;5.07;;;3.13;;
48006;SDS011;33771;48.180;11.400;2023-07-02T05:59:24;5.95;;;3.28;;
48006;SDS011;33771;48.180;11.400;2023-07-02T06:01:49;6.30;;;3.20;;
48006;SDS011;33771;48.180;11.400;2023-07-02T06:04:15;4.97;;;3.28;;
48006;SDS011;33771;48.180;11.400;2023-07-02T06:06:41;6.55;;;3.15;;
48006;SDS011;33771;48.180;11.400;2023-07-02T06:09:06;6.50;;;3.13;;
48006;SDS011;33771;48.180;11.400;2023-07-02T06:11:32;6.35;;;3.17;;
48006;SDS011;33771;48.180;11.400;2023-07-02T06:13:57;4.75;;;3.20;;
48006;SDS011;33771;48.180;11.400;2023-07-02T06:16:23;6.13;;;3.15;;
48006;SDS011;33771;48.180;11.400;2023-07-02T06:18:50;4.05;;;3.17;;
48006;SDS011;33771;48.180;11.400;2023-07-02T06:21:16;3.85;;;2.80;;
48006;SDS011;33771;48.180;11.400;2023-07-02T06:23:44;6.80;;;3.35;;
48006;SDS011;33771;48.180;11.400;2023-07-02T06:26:10;5.68;;;3.53;;
48006;SDS011;33771;48.180;11.400;2023-07-02T06:28:36;6.93;;;3.90;;
48006;SDS011;33771;48.180;11.400;2023-07-02T06:31:03;6.90;;;3.50;;
48006;SDS011;33771;48.180;11.400;2023-07-02T06:33:29;5.80;;;3.50;;
48006;SDS011;33771;48.180;11.400;2023-07-02T06:35:54;6.63;;;3.60;;
48006;SDS011;33771;48.180;11.400;2023-07-02T06:38:20;6.68;;;3.22;;
48006;SDS011;33771;48.180;11.400;2023-07-02T06:40:45;4.93;;;3.15;;
48006;SDS011;33771;48.180;11.400;2023-07-02T06:43:11;4.47;;;2.72;;
48006;SDS011;33771;48.180;11.400;2023-07-02T06:45:36;5.28;;;2.85;;
48006;SDS011;33771;48.180;11.400;2023-07-02T06:48:02;4.28;;;2.80;;
48006;SDS011;33771;48.180;11.400;2023-07-02T06:50:28;7.80;;;3.10;;
48006;SDS011;33771;48.180;11.400;2023-07-02T06:52:53;8.05;;;2.95;;
48006;SDS011;33771;48.180;11.400;2023-07-02T06:55:19;5.68;;;3.28;;
48006;SDS011;33771;48.180;11.400;2023-07-02T06:57:45;6.25;;;2.95;;
48006;SDS011;33771;48.180;11.400;2023-07-02T07:00:11;4.32;;;2.80;;
48006;SDS011;33771;48.180;11.400;2023-07-02T07:02:38;6.43;;;3.17;;
48006;SDS011;33771;48.180;11.400;2023-07-02T07:05:04;6.55;;;3.30;;
48006;SDS011;33771;48.180;11.400;2023-07-02T07:07:30;6.40;;;3.65;;
48006;SDS011;33771;48.180;11.400;2023-07-02T07:09:55;5.03;;;3.30;;
48006;SDS011;33771;48.180;11.400;2023-07-02T07:12:23;5.93;;;3.70;;
48006;SDS011;33771;48.180;11.400;2023-07-02T07:14:49;5.38;;;3.20;;
48006;SDS011;33771;48.180;11.400;2023-07-02T07:17:15;6.75;;;3.03;;
48006;SDS011;33771;48.180;11.400;2023-07-02T07:19:43;6.20;;;3.35;;
48006;SDS011;33771;48.180;11.400;2023-07-02T07:22:11;4.70;;;3.35;;
48006;SDS011;33771;48.180;11.400;2023-07-02T07:24:36;7.70;;;3.60;;
48006;SDS011;33771;48.180;11.400;2023-07-02T07:27:02;7.45;;;3.80;;
48006;SDS011;33771;48.180;11.400;2023-07-02T07:29:28;5.68;;;3.72;;
48006;SDS011;33771;48.180;11.400;2023-07-02T07:31:53;5.00;;;3.45;;
48006;SDS011;33771;48.180;11.400;2023-07-02T07:34:19;4.13;;;3.15;;
48006;SDS011;33771;48.180;11.400;2023-07-02T07:36:45;6.22;;;3.50;;
48006;SDS011;33771;48.180;11.400;2023-07-02T07:39:10;8.05;;;4.25;;
48006;SDS011;33771;48.180;11.400;2023-07-02T07:41:36;5.15;;;3.30;;
48006;SDS011;33771;48.180;11.400;2023-07-02T07:44:01;5.07;;;4.00;;
48006;SDS011;33771;48.180;11.400;2023-07-02T07:46:27;5.97;;;3.92;;
48006;SDS011;33771;48.180;11.400;2023-07-02T07:48:53;5.38;;;3.70;;
48006;SDS011;33771;48.180;11.400;2023-07-02T07:51:18;6.22;;;3.95;;
48006;SDS011;33771;48.180;11.400;2023-07-02T07:53:44;4.68;;;3.78;;
48006;SDS011;33771;48.180;11.400;2023-07-02T07:56:09;6.63;;;3.80;;
48006;SDS011;33771;48.180;11.400;2023-07-02T07:58:35;6.55;;;3.80;;
48006;SDS011;33771;48.180;11.400;2023-07-02T08:01:00;5.28;;;3.75;;
48006;SDS011;33771;48.180;11.400;2023-07-02T08:03:26;4.75;;;3.72;;
48006;SDS011;33771;48.180;11.400;2023-07-02T08:05:51;6.15;;;3.95;;
48006;SDS011;33771;48.180;11.400;2023-07-02T08:08:17;6.10;;;3.47;;
48006;SDS011;33771;48.180;11.400;2023-07-02T08:10:43;6.75;;;3.20;;
48006;SDS011;33771;48.180;11.400;2023-07-02T08:13:10;4.63;;;3.30;;
48006;SDS011;33771;48.180;11.400;2023-07-02T08:15:35;5.15;;;2.90;;
48006;SDS011;33771;48.180;11.400;2023-07-02T08:18:02;5.65;;;2.67;;
48006;SDS011;33771;48.180;11.400;2023-07-02T08:20:28;3.15;;;2.55;;
48006;SDS011;33771;48.180;11.400;2023-07-02T08:22:54;3.97;;;2.85;;
48006;SDS011;33771;48.180;11.400;2023-07-02T08:25:20;7.03;;;3.40;;
48006;SDS011;33771;48.180;11.400;2023-07-02T08:27:46;4.85;;;2.90;;
48006;SDS011;33771;48.180;11.400;2023-07-02T08:30:12;4.70;;;2.80;;
48006;SDS011;33771;48.180;11.400;2023-07-02T08:32:38;4.85;;;2.85;;
48006;SDS011;33771;48.180;11.400;2023-07-02T08:35:03;4.43;;;2.78;;
48006;SDS011;33771;48.180;11.400;2023-07-02T08:37:29;4.40;;;2.90;;
48006;SDS011;33771;48.180;11.400;2023-07-02T08:39:55;3.13;;;2.80;;
48006;SDS011;33771;48.180;11.400;2023-07-02T08:42:20;4.95;;;3.30;;
48006;SDS011;33771;48.180;11.400;2023-07-02T08:44:46;4.70;;;3.10;;
48006;SDS011;33771;48.180;11.400;2023-07-02T08:47:12;5.10;;;3.10;;
48006;SDS011;33771;48.180;11.400;2023-07-02T08:49:38;3.30;;;2.67;;
48006;SDS011;33771;48.180;11.400;2023-07-02T08:52:04;3.63;;;2.60;;
48006;SDS011;33771;48.180;11.400;2023-07-02T08:54:30;3.28;;;2.50;;
48006;SDS011;33771;48.180;11.400;2023-07-02T08:56:56;4.55;;;2.42;;
48006;SDS011;33771;48.180;11.400;2023-07-02T08:59:22;4.18;;;2.50;;
48006;SDS011;33771;48.180;11.400;2023-07-02T09:01:49;4.05;;;2.33;;
48006;SDS011;33771;48.180;11.400;2023-07-02T09:04:20;4.65;;;3.00;;
48006;SDS011;33771;48.180;11.400;2023-07-02T09:07:03;4.60;;;2.15;;
48006;SDS011;33771;48.180;11.400;2023-07-02T09:09:33;4.10;;;2.55;;
48006;SDS011;33771;48.180;11.400;2023-07-02T09:12:25;4.75;;;2.30;;
48006;SDS011;33771;48.180;11.400;2023-07-02T09:17:49;4.05;;;2.60;;
48006;SDS011;33771;48.180;11.400;2023-07-02T09:20:15;3.85;;;2.60;;
48006;SDS011;33771;48.180;11.400;2023-07-02T09:22:40;4.90;;;2.53;;
48006;SDS011;33771;48.180;11.400;2023-07-02T09:25:06;5.38;;;2.67;;
48006;SDS011;33771;48.180;11.400;2023-07-02T09:27:33;4.90;;;2.45;;
48006;SDS011;33771;48.180;11.400;2023-07-02T09:30:08;5.53;;;3.00;;
48006;SDS011;33771;48.180;11.400;2023-07-02T09:32:35;5.30;;;2.70;;
48006;SDS011;33771;48.180;11.400;2023-07-02T09:35:01;5.50;;;3.20;;
48006;SDS011;33771;48.180;11.400;2023-07-02T09:37:27;3.78;;;2.90;;
48006;SDS011;33771;48.180;11.400;2023-07-02T09:39:53;4.10;;;2.80;;
48006;SDS011;33771;48.180;11.400;2023-07-02T09:42:20;4.18;;;2.90;;
48006;SDS011;33771;48.180;11.400;2023-07-02T09:44:47;3.75;;;2.72;;
48006;SDS011;33771;48.180;11.400;2023-07-02T09:47:17;4.55;;;3.13;;
48006;SDS011;33771;48.180;11.400;2023-07-02T09:50:00;4.07;;;2.70;;
48006;SDS011;33771;48.180;11.400;2023-07-02T09:52:28;5.05;;;3.00;;
48006;SDS011;33771;48.180;11.400;2023-07-02T09:54:54;4.28;;;2.85;;
48006;SDS011;33771;48.180;11.400;2023-07-02T09:57:20;5.15;;;2.90;;
48006;SDS011;33771;48.180;11.400;2023-07-02T09:59:45;4.10;;;2.85;;
48006;SDS011;33771;48.180;11.400;2023-07-02T10:02:12;4.13;;;2.92;;
48006;SDS011;33771;48.180;11.400;2023-07-02T10:07:10;4.95;;;3.17;;
48006;SDS011;33771;48.180;11.400;2023-07-02T10:09:38;4.50;;;3.08;;
48006;SDS011;33771;48.180;11.400;2023-07-02T10:12:16;3.97;;;3.15;;
48006;SDS011;33771;48.180;11.400;2023-07-02T10:14:47;5.78;;;3.25;;
48006;SDS011;33771;48.180;11.400;2023-07-02T10:17:53;4.13;;;2.92;;
48006;SDS011;33771;48.180;11.400;2023-07-02T10:20:06;4.45;;;3.08;;
48006;SDS011;33771;48.180;11.400;2023-07-02T10:22:42;4.18;;;2.97;;
48006;SDS011;33771;48.180;11.400;2023-07-02T10:25:12;4.67;;;3.40;;
48006;SDS011;33771;48.180;11.400;2023-07-02T10:27:52;5.25;;;3.40;;
48006;SDS011;33771;48.180;11.400;2023-07-02T10:30:17;5.05;;;3.25;;
48006;SDS011;33771;48.180;11.400;2023-07-02T10:32:43;5.22;;;3.28;;
48006;SDS011;33771;48.180;11.400;2023-07-02T10:35:18;6.50;;;4.05;;
48006;SDS011;33771;48.180;11.400;2023-07-02T10:37:44;6.72;;;3.85;;
48006;SDS011;33771;48.180;11.400;2023-07-02T10:40:10;7.13;;;4.78;;
48006;SDS011;33771;48.180;11.400;2023-07-02T10:42:46;6.75;;;4.90;;
48006;SDS011;33771;48.180;11.400;2023-07-02T10:45:16;6.72;;;4.55;;
48006;SDS011;33771;48.180;11.400;2023-07-02T10:47:42;8.45;;;4.63;;
48006;SDS011;33771;48.180;11.400;2023-07-02T10:50:17;7.20;;;4.60;;
48006;SDS011;33771;48.180;11.400;2023-07-02T10:52:44;8.40;;;5.75;;
48006;SDS011;33771;48.180;11.400;2023-07-02T10:55:10;7.68;;;4.72;;
48006;SDS011;33771;48.180;11.400;2023-07-02T10:57:40;9.48;;;4.50;;
48006;SDS011;33771;48.180;11.400;2023-07-02T11:00:06;8.27;;;5.10;;
48006;SDS011;33771;48.180;11.400;2023-07-02T11:02:36;10.40;;;5.22;;
48006;SDS011;33771;48.180;11.400;2023-07-02T11:05:05;7.43;;;4.75;;
48006;SDS011;33771;48.180;11.400;2023-07-02T11:07:34;12.00;;;4.93;;
48006;SDS011;33771;48.180;11.400;2023-07-02T11:09:59;7.78;;;5.10;;
48006;SDS011;33771;48.180;11.400;2023-07-02T11:12:28;8.80;;;5.28;;
48006;SDS011;33771;48.180;11.400;2023-07-02T11:14:55;8.82;;;5.40;;
48006;SDS011;33771;48.180;11.400;2023-07-02T11:17:24;10.10;;;5.60;;
48006;SDS011;33771;48.180;11.400;2023-07-02T11:19:51;13.00;;;7.20;;
48006;SDS011;33771;48.180;11.400;2023-07-02T11:22:18;11.85;;;7.43;;
48006;SDS011;33771;48.180;11.400;2023-07-02T11:24:43;12.30;;;7.38;;
48006;SDS011;33771;48.180;11.400;2023-07-02T11:27:09;12.27;;;7.22;;
48006;SDS011;33771;48.180;11.400;2023-07-02T11:29:45;13.10;;;8.30;;
48006;SDS011;33771;48.180;11.400;2023-07-02T11:32:11;11.48;;;7.50;;
48006;SDS011;33771;48.180;11.400;2023-07-02T11:34:37;14.27;;;8.90;;
48006;SDS011;33771;48.180;11.400;2023-07-02T11:37:04;12.70;;;8.50;;
48006;SDS011;33771;48.180;11.400;2023-07-02T11:39:30;12.93;;;8.60;;
48006;SDS011;33771;48.180;11.400;2023-07-02T11:41:56;12.95;;;8.65;;
48006;SDS011;33771;48.180;11.400;2023-07-02T11:44:21;12.57;;;8.32;;
48006;SDS011;33771;48.180;11.400;2023-07-02T11:46:47;14.15;;;8.85;;
48006;SDS011;33771;48.180;11.400;2023-07-02T11:49:13;16.67;;;8.85;;
48006;SDS011;33771;48.180;11.400;2023-07-02T11:51:39;16.33;;;8.98;;
48006;SDS011;33771;48.180;11.400;2023-07-02T11:54:05;12.05;;;7.82;;
48006;SDS011;33771;48.180;11.400;2023-07-02T11:56:31;11.90;;;8.93;;
48006;SDS011;33771;48.180;11.400;2023-07-02T11:58:57;12.02;;;8.32;;
48006;SDS011;33771;48.180;11.400;2023-07-02T12:01:23;13.02;;;8.70;;
48006;SDS011;33771;48.180;11.400;2023-07-02T12:03:48;13.73;;;9.43;;
48006;SDS011;33771;48.180;11.400;2023-07-02T12:06:14;12.98;;;8.85;;
48006;SDS011;33771;48.180;11.400;2023-07-02T12:08:40;13.45;;;9.00;;
48006;SDS011;33771;48.180;11.400;2023-07-02T12:11:06;14.63;;;8.95;;
48006;SDS011;33771;48.180;11.400;2023-07-02T12:13:32;14.45;;;9.15;;
48006;SDS011;33771;48.180;11.400;2023-07-02T12:15:57;13.23;;;9.48;;
48006;SDS011;33771;48.180;11.400;2023-07-02T12:18:23;15.95;;;9.40;;
48006;SDS011;33771;48.180;11.400;2023-07-02T12:20:48;13.38;;;9.10;;
48006;SDS011;33771;48.180;11.400;2023-07-02T12:23:14;16.27;;;9.90;;
48006;SDS011;33771;48.180;11.400;2023-07-02T12:25:40;14.32;;;9.65;;
48006;SDS011;33771;48.180;11.400;2023-07-02T12:28:05;16.20;;;10.25;;
48006;SDS011;33771;48.180;11.400;2023-07-02T12:30:31;16.08;;;10.57;;
48006;SDS011;33771;48.180;11.400;2023-07-02T12:32:57;15.05;;;10.25;;
48006;SDS011;33771;48.180;11.400;2023-07-02T12:35:23;14.00;;;9.35;;
48006;SDS011;33771;48.180;11.400;2023-07-02T12:37:50;16.10;;;10.48;;
48006;SDS011;33771;48.180;11.400;2023-07-02T12:40:16;17.05;;;10.80;;
48006;SDS011;33771;48.180;11.400;2023-07-02T12:42:43;16.35;;;10.35;;
48006;SDS011;33771;48.180;11.400;2023-07-02T12:45:10;19.77;;;11.30;;
48006;SDS011;33771;48.180;11.400;2023-07-02T12:47:37;17.38;;;11.20;;
48006;SDS011;33771;48.180;11.400;2023-07-02T12:50:04;19.90;;;11.88;;
48006;SDS011;33771;48.180;11.400;2023-07-02T12:52:30;19.58;;;12.30;;
48006;SDS011;33771;48.180;11.400;2023-07-02T12:54:56;17.00;;;12.38;;
48006;SDS011;33771;48.180;11.400;2023-07-02T12:57:22;17.50;;;11.55;;
48006;SDS011;33771;48.180;11.400;2023-07-02T12:59:47;18.58;;;12.45;;
48006;SDS011;33771;48.180;11.400;2023-07-02T13:02:13;18.73;;;11.90;;
48006;SDS011;33771;48.180;11.400;2023-07-02T13:04:38;18.08;;;12.00;;
48006;SDS011;33771;48.180;11.400;2023-07-02T13:07:05;19.80;;;13.02;;
48006;SDS011;33771;48.180;11.400;2023-07-02T13:09:31;18.65;;;13.25;;
48006;SDS011;33771;48.180;11.400;2023-07-02T13:11:56;20.90;;;13.98;;
48006;SDS011;33771;48.180;11.400;2023-07-02T13:14:22;19.85;;;13.35;;
48006;SDS011;33771;48.180;11.400;2023-07-02T13:16:48;17.10;;;12.68;;
48006;SDS011;33771;48.180;11.400;2023-07-02T13:19:13;20.70;;;13.32;;
48006;SDS011;33771;48.180;11.400;2023-07-02T13:21:41;18.77;;;13.15;;
48006;SDS011;33771;48.180;11.400;2023-07-02T13:24:07;19.23;;;13.05;;
48006;SDS011;33771;48.180;11.400;2023-07-02T13:26:32;19.88;;;13.80;;
48006;SDS011;33771;48.180;11.400;2023-07-02T13:28:58;19.38;;;12.93;;
48006;SDS011;33771;48.180;11.400;2023-07-02T13:31:23;19.33;;;13.30;;
48006;SDS011;33771;48.180;11.400;2023-07-02T13:33:49;22.10;;;14.77;;
48006;SDS011;33771;48.180;11.400;2023-07-02T13:36:15;20.17;;;13.95;;
48006;SDS011;33771;48.180;11.400;2023-07-02T13:38:43;20.63;;;14.40;;
48006;SDS011;33771;48.180;11.400;2023-07-02T13:41:09;20.67;;;13.63;;
48006;SDS011;33771;48.180;11.400;2023-07-02T13:43:34;21.13;;;13.98;;
48006;SDS011;33771;48.180;11.400;2023-07-02T13:46:00;19.52;;;13.75;;
48006;SDS011;33771;48.180;11.400;2023-07-02T13:48:27;22.25;;;14.48;;
48006;SDS011;33771;48.180;11.400;2023-07-02T13:50:52;20.30;;;14.20;;
48006;SDS011;33771;48.180;11.400;2023-07-02T13:53:18;21.10;;;14.32;;
48006;SDS011;33771;48.180;11.400;2023-07-02T13:55:44;22.50;;;14.25;;
48006;SDS011;33771;48.180;11.400;2023-07-02T13:58:10;23.90;;;14.85;;
48006;SDS011;33771;48.180;11.400;2023-07-02T14:00:35;19.25;;;14.38;;
48006;SDS011;33771;48.180;11.400;2023-07-02T14:03:01;23.17;;;14.98;;
48006;SDS011;33771;48.180;11.400;2023-07-02T14:05:27;25.88;;;15.00;;
48006;SDS011;33771;48.180;11.400;2023-07-02T14:07:53;21.92;;;14.95;;
48006;SDS011;33771;48.180;11.400;2023-07-02T14:10:19;22.52;;;15.77;;
48006;SDS011;33771;48.180;11.400;2023-07-02T14:12:44;20.33;;;14.40;;
48006;SDS011;33771;48.180;11.400;2023-07-02T14:15:10;22.45;;;15.23;;
48006;SDS011;33771;48.180;11.400;2023-07-02T14:17:38;23.73;;;15.93;;
48006;SDS011;33771;48.180;11.400;2023-07-02T14:20:04;21.55;;;14.98;;
48006;SDS011;33771;48.180;11.400;2023-07-02T14:22:30;22.13;;;14.98;;
48006;SDS011;33771;48.180;11.400;2023-07-02T14:24:56;25.33;;;16.58;;
48006;SDS011;33771;48.180;11.400;2023-07-02T14:27:21;22.48;;;16.05;;
48006;SDS011;33771;48.180;11.400;2023-07-02T14:29:47;23.63;;;15.77;;
48006;SDS011;33771;48.180;11.400;2023-07-02T14:32:13;22.90;;;15.57;;
48006;SDS011;33771;48.180;11.400;2023-07-02T14:34:39;27.65;;;16.60;;